createdAt,value
2023-07-03T00:00:07.951Z,19.7811
2023-07-03T00:02:08.262Z,19.7811
2023-07-03T00:03:08.454Z,19.7811
2023-07-03T00:04:08.458Z,19.7811
2023-07-03T00:05:08.476Z,19.7811
2023-07-03T00:06:08.715Z,19.77277
2023-07-03T00:07:08.740Z,19.77277
2023-07-03T00:08:09.202Z,19.77277
2023-07-03T00:09:09.135Z,19.77277
2023-07-03T00:10:09.240Z,19.77277
2023-07-03T00:11:09.713Z,19.77277
2023-07-03T00:13:09.943Z,19.77277
2023-07-03T00:15:10.258Z,19.77277
2023-07-03T00:17:10.513Z,19.76444
2023-07-03T00:19:10.698Z,19.76444
2023-07-03T00:20:10.861Z,19.76444
2023-07-03T00:21:11.041Z,19.76444
2023-07-03T00:22:11.036Z,19.76444
2023-07-03T00:23:11.930Z,19.76444
2023-07-03T00:25:11.860Z,19.76444
2023-07-03T00:27:12.038Z,19.75499
2023-07-03T00:29:11.817Z,19.75499
2023-07-03T00:30:12.497Z,19.75499
2023-07-03T00:31:12.511Z,19.75499
2023-07-03T00:32:12.851Z,19.75499
2023-07-03T00:34:12.559Z,19.75499
2023-07-03T00:35:13.160Z,19.7461
2023-07-03T00:36:13.124Z,19.7461
2023-07-03T00:37:13.501Z,19.7461
2023-07-03T00:38:13.474Z,19.7461
2023-07-03T00:39:13.951Z,19.7461
2023-07-03T00:41:14.265Z,19.7461
2023-07-03T00:43:14.575Z,19.7461
2023-07-03T00:45:15.159Z,19.73833
2023-07-03T00:47:15.384Z,19.73833
2023-07-03T00:49:15.351Z,19.73833
2023-07-03T00:50:15.474Z,19.73833
2023-07-03T00:51:15.530Z,19.73833
2023-07-03T00:52:15.658Z,19.73833
2023-07-03T00:53:16.708Z,19.73833
2023-07-03T00:55:16.333Z,19.72999
2023-07-03T00:56:16.302Z,19.72999
2023-07-03T00:57:16.756Z,19.72999
2023-07-03T00:59:17.389Z,19.72999
2023-07-03T01:01:17.324Z,19.72999
2023-07-03T01:03:17.554Z,19.72999
2023-07-03T01:05:17.589Z,19.72499
2023-07-03T01:06:17.825Z,19.72499
2023-07-03T01:07:17.900Z,19.72499
2023-07-03T01:09:18.020Z,19.72499
2023-07-03T01:10:18.174Z,19.72499
2023-07-03T01:11:18.365Z,19.72499
2023-07-03T01:12:18.535Z,19.72499
2023-07-03T01:13:18.796Z,19.72499
2023-07-03T01:14:18.881Z,19.72499
2023-07-03T01:15:19.236Z,19.71499
2023-07-03T01:17:19.620Z,19.71499
2023-07-03T01:18:19.576Z,19.71499
2023-07-03T01:19:19.851Z,19.71499
2023-07-03T01:20:19.894Z,19.71499
2023-07-03T01:21:20.143Z,19.71499
2023-07-03T01:23:20.701Z,19.71499
2023-07-03T01:24:20.618Z,19.71499
2023-07-03T01:25:20.641Z,19.70666
2023-07-03T01:26:20.662Z,19.70666
2023-07-03T01:27:21.057Z,19.70666
2023-07-03T01:29:21.456Z,19.70666
2023-07-03T01:31:21.700Z,19.70666
2023-07-03T01:32:21.715Z,19.70666
2023-07-03T01:33:22.079Z,19.70666
2023-07-03T01:35:22.371Z,19.69666
2023-07-03T01:37:22.519Z,19.69666
2023-07-03T01:38:22.676Z,19.69666
2023-07-03T01:39:22.744Z,19.69666
2023-07-03T01:40:22.775Z,19.69666
2023-07-03T01:41:23.179Z,19.69666
2023-07-03T01:42:23.103Z,19.69666
2023-07-03T01:43:23.612Z,19.69666
2023-07-03T01:44:23.830Z,19.69666
2023-07-03T01:46:24.631Z,19.68499
2023-07-03T01:48:24.229Z,19.68499
2023-07-03T01:50:24.692Z,19.68499
2023-07-03T01:51:24.812Z,19.68499
2023-07-03T01:52:25.311Z,19.68499
2023-07-03T01:54:25.044Z,19.68499
2023-07-03T01:55:25.135Z,19.67388
2023-07-03T01:56:25.318Z,19.67388
2023-07-03T01:57:25.347Z,19.67388
2023-07-03T01:58:25.727Z,19.67388
2023-07-03T01:59:26.019Z,19.67388
2023-07-03T02:01:26.349Z,19.67388
2023-07-03T02:03:26.244Z,19.67388
2023-07-03T02:04:26.664Z,19.67388
2023-07-03T02:05:26.538Z,19.6661
2023-07-03T02:06:26.995Z,19.6661
2023-07-03T02:07:26.886Z,19.6661
2023-07-03T02:08:26.960Z,19.6661
2023-07-03T02:10:27.327Z,19.6661
2023-07-03T02:11:27.378Z,19.6661
2023-07-03T02:12:27.676Z,19.6661
2023-07-03T02:13:27.629Z,19.6661
2023-07-03T02:14:27.937Z,19.6661
2023-07-03T02:15:28.013Z,19.66222
2023-07-03T02:16:28.370Z,19.66222
2023-07-03T02:17:28.321Z,19.66222
2023-07-03T02:18:28.398Z,19.66222
2023-07-03T02:19:28.810Z,19.66222
2023-07-03T02:20:28.766Z,19.66222
2023-07-03T02:21:29.266Z,19.66222
2023-07-03T02:23:29.456Z,19.66222
2023-07-03T02:24:29.385Z,19.66222
2023-07-03T02:25:29.711Z,19.6561
2023-07-03T02:27:29.856Z,19.6561
2023-07-03T02:28:30.025Z,19.6561
2023-07-03T02:29:30.529Z,19.6561
2023-07-03T02:31:30.586Z,19.6561
2023-07-03T02:32:30.784Z,19.6561
2023-07-03T02:33:30.939Z,19.6561
2023-07-03T02:34:30.885Z,19.6561
2023-07-03T02:35:31.216Z,19.64222
2023-07-03T02:36:31.124Z,19.64222
2023-07-03T02:37:31.561Z,19.64222
2023-07-03T02:39:31.896Z,19.64222
2023-07-03T02:40:31.851Z,19.64222
2023-07-03T02:41:31.827Z,19.64222
2023-07-03T02:42:32.255Z,19.64222
2023-07-03T02:44:32.408Z,19.64222
2023-07-03T02:45:32.513Z,19.62444
2023-07-03T02:46:32.810Z,19.62444
2023-07-03T02:47:32.814Z,19.62444
2023-07-03T02:48:32.505Z,19.62444
2023-07-03T02:49:32.649Z,19.62444
2023-07-03T02:50:32.750Z,19.62444
2023-07-03T02:51:32.920Z,19.62444
2023-07-03T02:52:33.112Z,19.62444
2023-07-03T02:53:33.208Z,19.62444
2023-07-03T02:54:33.904Z,19.62444
2023-07-03T02:56:34.172Z,19.61333
2023-07-03T02:58:34.429Z,19.61333
2023-07-03T02:59:34.068Z,19.61333
2023-07-03T03:00:34.667Z,19.61333
2023-07-03T03:02:34.566Z,19.61333
2023-07-03T03:03:35.429Z,19.61333
2023-07-03T03:04:35.494Z,19.61333
2023-07-03T03:05:35.390Z,19.6
2023-07-03T03:06:35.798Z,19.6
2023-07-03T03:08:35.967Z,19.6
2023-07-03T03:09:36.207Z,19.6
2023-07-03T03:10:36.415Z,19.6
2023-07-03T03:11:36.326Z,19.6
2023-07-03T03:12:36.810Z,19.6
2023-07-03T03:14:37.323Z,19.6
2023-07-03T03:16:37.315Z,19.58388
2023-07-03T03:17:37.557Z,19.58388
2023-07-03T03:18:37.617Z,19.58388
2023-07-03T03:20:38.014Z,19.58388
2023-07-03T03:22:37.582Z,19.58388
2023-07-03T03:23:38.243Z,19.58388
2023-07-03T03:25:38.021Z,19.5711
2023-07-03T03:26:38.799Z,19.5711
2023-07-03T03:28:39.156Z,19.5711
2023-07-03T03:30:39.486Z,19.5711
2023-07-03T03:32:39.508Z,19.5711
2023-07-03T03:33:39.702Z,19.5711
2023-07-03T03:34:39.855Z,19.5711
2023-07-03T03:35:39.899Z,19.55722
2023-07-03T03:36:40.348Z,19.55722
2023-07-03T03:37:40.303Z,19.55722
2023-07-03T03:38:40.602Z,19.55722
2023-07-03T03:40:40.302Z,19.55722
2023-07-03T03:41:41.040Z,19.55722
2023-07-03T03:42:40.999Z,19.55722
2023-07-03T03:43:41.444Z,19.55722
2023-07-03T03:45:41.638Z,19.54722
2023-07-03T03:47:41.882Z,19.54722
2023-07-03T03:48:41.818Z,19.54722
2023-07-03T03:49:42.046Z,19.54722
2023-07-03T03:50:42.074Z,19.54722
2023-07-03T03:51:42.446Z,19.54722
2023-07-03T03:52:42.651Z,19.54722
2023-07-03T03:53:42.772Z,19.54722
2023-07-03T03:55:42.776Z,19.54055
2023-07-03T03:57:43.305Z,19.54055
2023-07-03T03:58:43.273Z,19.54055
2023-07-03T03:59:43.601Z,19.54055
2023-07-03T04:01:44.294Z,19.54055
2023-07-03T04:03:46.531Z,19.54055
2023-07-03T04:05:44.450Z,19.54333
2023-07-03T04:06:44.574Z,19.54333
2023-07-03T04:07:45.229Z,19.54333
2023-07-03T04:09:45.052Z,19.54333
2023-07-03T04:11:45.670Z,19.54333
2023-07-03T04:13:45.895Z,19.54333
2023-07-03T04:14:45.350Z,19.54333
2023-07-03T04:16:46.175Z,19.55222
2023-07-03T04:17:46.510Z,19.55222
2023-07-03T04:19:46.692Z,19.55222
2023-07-03T04:20:46.637Z,19.55222
2023-07-03T04:21:47.039Z,19.55222
2023-07-03T04:22:47.503Z,19.55222
2023-07-03T04:23:47.390Z,19.55222
2023-07-03T04:24:47.421Z,19.55222
2023-07-03T04:25:47.578Z,19.56055
2023-07-03T04:26:47.635Z,19.56055
2023-07-03T04:27:47.777Z,19.56055
2023-07-03T04:28:47.904Z,19.56055
2023-07-03T04:29:48.384Z,19.56055
2023-07-03T04:31:48.703Z,19.56055
2023-07-03T04:33:48.885Z,19.56055
2023-07-03T04:35:49.380Z,19.5711
2023-07-03T04:36:49.161Z,19.5711
2023-07-03T04:37:49.499Z,19.5711
2023-07-03T04:38:49.455Z,19.5711
2023-07-03T04:39:49.903Z,19.5711
2023-07-03T04:40:49.826Z,19.5711
2023-07-03T04:41:50.168Z,19.5711
2023-07-03T04:43:50.451Z,19.5711
2023-07-03T04:44:50.724Z,19.5711
2023-07-03T04:46:50.996Z,19.58277
2023-07-03T04:48:50.873Z,19.58277
2023-07-03T04:49:51.326Z,19.58277
2023-07-03T04:51:51.577Z,19.58277
2023-07-03T04:52:51.699Z,19.58277
2023-07-03T04:53:51.612Z,19.58277
2023-07-03T04:54:52.244Z,19.58277
2023-07-03T04:56:52.442Z,19.59666
2023-07-03T04:58:53.034Z,19.59666
2023-07-03T05:00:53.002Z,19.59666
2023-07-03T05:01:53.104Z,19.59666
2023-07-03T05:02:53.457Z,19.59666
2023-07-03T05:04:53.606Z,19.59666
2023-07-03T05:05:53.700Z,19.60999
2023-07-03T05:06:53.856Z,19.60999
2023-07-03T05:08:54.108Z,19.60999
2023-07-03T05:09:54.072Z,19.60999
2023-07-03T05:10:53.918Z,19.60999
2023-07-03T05:12:54.853Z,19.60999
2023-07-03T05:14:55.014Z,19.60999
2023-07-03T05:15:55.140Z,19.62388
2023-07-03T05:16:55.446Z,19.62388
2023-07-03T05:17:55.460Z,19.62388
2023-07-03T05:18:55.733Z,19.62388
2023-07-03T05:20:55.964Z,19.62388
2023-07-03T05:21:56.138Z,19.62388
2023-07-03T05:22:56.588Z,19.62388
2023-07-03T05:24:56.497Z,19.62388
2023-07-03T05:25:56.481Z,19.64388
2023-07-03T05:26:56.987Z,19.64388
2023-07-03T05:27:57.006Z,19.64388
2023-07-03T05:28:57.214Z,19.64388
2023-07-03T05:29:57.425Z,19.64388
2023-07-03T05:31:57.272Z,19.64388
2023-07-03T05:32:57.983Z,19.64388
2023-07-03T05:34:58.224Z,19.64388
2023-07-03T05:35:58.230Z,19.66666
2023-07-03T05:36:57.801Z,19.66666
2023-07-03T05:37:58.499Z,19.66666
2023-07-03T05:38:58.673Z,19.66666
2023-07-03T05:39:58.838Z,19.66666
2023-07-03T05:40:58.742Z,19.66666
2023-07-03T05:41:59.050Z,19.66666
2023-07-03T05:42:59.028Z,19.66666
2023-07-03T05:43:59.498Z,19.66666
2023-07-03T05:44:59.727Z,19.66666
2023-07-03T05:46:59.974Z,19.69277
2023-07-03T05:47:59.820Z,19.69277
2023-07-03T05:49:00.164Z,19.69277
2023-07-03T05:50:00.188Z,19.69277
2023-07-03T05:51:00.545Z,19.69277
2023-07-03T05:53:00.210Z,19.69277
2023-07-03T05:54:00.854Z,19.69277
2023-07-03T05:55:00.836Z,19.69277
2023-07-03T05:56:01.049Z,19.73832
2023-07-03T05:57:01.124Z,19.73832
2023-07-03T05:58:01.569Z,19.73832
2023-07-03T06:00:02.201Z,19.73832
2023-07-03T06:02:01.877Z,19.73832
2023-07-03T06:03:02.034Z,19.73832
2023-07-03T06:04:02.605Z,19.73832
2023-07-03T06:05:02.587Z,19.73832
2023-07-03T06:06:02.843Z,19.76499
2023-07-03T06:07:02.817Z,19.76499
2023-07-03T06:09:03.398Z,19.76499
2023-07-03T06:11:03.327Z,19.76499
2023-07-03T06:12:03.548Z,19.76499
2023-07-03T06:13:03.588Z,19.76499
2023-07-03T06:14:03.695Z,19.76499
2023-07-03T06:15:04.084Z,19.76499
2023-07-03T06:16:04.205Z,19.78944
2023-07-03T06:17:04.434Z,19.78944
2023-07-03T06:19:04.043Z,19.78944
2023-07-03T06:20:04.183Z,19.78944
2023-07-03T06:21:04.304Z,19.78944
2023-07-03T06:22:04.442Z,19.78944
2023-07-03T06:23:04.608Z,19.78944
2023-07-03T06:24:04.749Z,19.78944
2023-07-03T06:25:05.268Z,19.78944
2023-07-03T06:27:05.712Z,19.81444
2023-07-03T06:28:05.736Z,19.81444
2023-07-03T06:29:06.091Z,19.81444
2023-07-03T06:30:06.197Z,19.81444
2023-07-03T06:32:06.636Z,19.81444
2023-07-03T06:34:06.901Z,19.81444
2023-07-03T06:36:07.160Z,19.83666
2023-07-03T06:38:07.577Z,19.83666
2023-07-03T06:40:07.792Z,19.83666
2023-07-03T06:41:07.746Z,19.83666
2023-07-03T06:42:07.710Z,19.83666
2023-07-03T06:43:08.103Z,19.83666
2023-07-03T06:44:08.073Z,19.83666
2023-07-03T06:45:08.323Z,19.83666
2023-07-03T06:46:08.466Z,19.84777
2023-07-03T06:47:08.825Z,19.84777
2023-07-03T06:49:09.062Z,19.84777
2023-07-03T06:51:09.067Z,19.84777
2023-07-03T06:52:09.439Z,19.84777
2023-07-03T06:54:10.423Z,19.84777
2023-07-03T06:56:09.533Z,19.86832
2023-07-03T06:57:09.696Z,19.86832
2023-07-03T06:58:10.436Z,19.86832
2023-07-03T07:00:10.546Z,19.86832
2023-07-03T07:01:10.638Z,19.86832
2023-07-03T07:02:11.058Z,19.86832
2023-07-03T07:03:11.004Z,19.86832
2023-07-03T07:04:11.470Z,19.86832
2023-07-03T07:05:11.398Z,19.86832
2023-07-03T07:06:11.781Z,19.89944
2023-07-03T07:08:12.311Z,19.89944
2023-07-03T07:10:12.241Z,19.89944
2023-07-03T07:11:12.459Z,19.89944
2023-07-03T07:12:12.518Z,19.89944
2023-07-03T07:13:12.479Z,19.89944
2023-07-03T07:14:12.783Z,19.89944
2023-07-03T07:15:12.899Z,19.89944
2023-07-03T07:17:13.226Z,19.89166
2023-07-03T07:18:13.205Z,19.89166
2023-07-03T07:19:13.647Z,19.89166
2023-07-03T07:20:13.622Z,19.89166
2023-07-03T07:21:13.963Z,19.89166
2023-07-03T07:23:13.873Z,19.89166
2023-07-03T07:24:14.331Z,19.89166
2023-07-03T07:26:14.705Z,19.87222
2023-07-03T07:27:14.647Z,19.87222
2023-07-03T07:28:14.839Z,19.87222
2023-07-03T07:30:15.008Z,19.87222
2023-07-03T07:31:15.155Z,19.87222
2023-07-03T07:32:15.346Z,19.87222
2023-07-03T07:33:15.280Z,19.87222
2023-07-03T07:34:15.668Z,19.87222
2023-07-03T07:35:15.614Z,19.87222
2023-07-03T07:36:16.071Z,19.87499
2023-07-03T07:37:16.072Z,19.87499
2023-07-03T07:38:16.369Z,19.87499
2023-07-03T07:39:16.304Z,19.87499
2023-07-03T07:40:16.590Z,19.87499
2023-07-03T07:42:16.882Z,19.87499
2023-07-03T07:43:17.122Z,19.87499
2023-07-03T07:44:17.277Z,19.87499
2023-07-03T07:45:16.729Z,19.87499
2023-07-03T07:46:16.862Z,19.87388
2023-07-03T07:47:16.964Z,19.87388
2023-07-03T07:48:17.135Z,19.87388
2023-07-03T07:49:17.235Z,19.87388
2023-07-03T07:50:18.246Z,19.87388
2023-07-03T07:53:17.844Z,19.87388
2023-07-03T07:54:17.960Z,19.87388
2023-07-03T07:55:18.102Z,19.88444
2023-07-03T07:56:18.244Z,19.88444
2023-07-03T07:57:18.360Z,19.88444
2023-07-03T07:58:18.586Z,19.88444
2023-07-03T07:59:19.364Z,19.88444
2023-07-03T08:00:19.515Z,19.88444
2023-07-03T08:02:19.774Z,19.88444
2023-07-03T08:04:20.004Z,19.88444
2023-07-03T08:06:20.165Z,19.90166
2023-07-03T08:07:20.126Z,19.90166
2023-07-03T08:08:20.531Z,19.90166
2023-07-03T08:09:20.472Z,19.90166
2023-07-03T08:10:20.947Z,19.90166
2023-07-03T08:12:21.222Z,19.90166
2023-07-03T08:13:21.136Z,19.90166
2023-07-03T08:14:21.587Z,19.90166
2023-07-03T08:15:21.695Z,19.91444
2023-07-03T08:17:22.086Z,19.91444
2023-07-03T08:19:21.690Z,19.91444
2023-07-03T08:20:21.829Z,19.91444
2023-07-03T08:21:22.449Z,19.91444
2023-07-03T08:22:22.403Z,19.91444
2023-07-03T08:23:23.419Z,19.91444
2023-07-03T08:25:22.989Z,19.90999
2023-07-03T08:26:23.003Z,19.90999
2023-07-03T08:27:23.404Z,19.90999
2023-07-03T08:28:23.389Z,19.90999
2023-07-03T08:29:23.649Z,19.90999
2023-07-03T08:30:23.703Z,19.90999
2023-07-03T08:31:23.997Z,19.90999
2023-07-03T08:32:23.985Z,19.90999
2023-07-03T08:33:24.321Z,19.90999
2023-07-03T08:37:25.610Z,19.89055
2023-07-03T08:39:25.870Z,19.89055
2023-07-03T08:41:25.755Z,19.89055
2023-07-03T08:42:25.819Z,19.89055
2023-07-03T08:43:25.831Z,19.89055
2023-07-03T08:44:26.389Z,19.89055
2023-07-03T08:46:26.268Z,19.85999
2023-07-03T08:47:26.634Z,19.85999
2023-07-03T08:48:26.678Z,19.85999
2023-07-03T08:50:36.304Z,19.85999
2023-07-03T08:51:26.806Z,19.85999
2023-07-03T08:52:27.098Z,19.85999
2023-07-03T08:53:27.043Z,19.85999
2023-07-03T08:54:27.377Z,19.85999
2023-07-03T08:55:27.346Z,19.82722
2023-07-03T08:56:27.684Z,19.82722
2023-07-03T08:57:27.642Z,19.82722
2023-07-03T08:58:28.034Z,19.82722
2023-07-03T08:59:28.221Z,19.82722
2023-07-03T09:01:29.159Z,19.82722
2023-07-03T09:03:29.078Z,19.82722
2023-07-03T09:04:28.915Z,19.82722
2023-07-03T09:05:29.215Z,19.7911
2023-07-03T09:06:29.167Z,19.7911
2023-07-03T09:07:28.923Z,19.7911
2023-07-03T09:08:29.627Z,19.7911
2023-07-03T09:10:30.567Z,19.7911
2023-07-03T09:12:30.341Z,19.7911
2023-07-03T09:14:30.930Z,19.7911
2023-07-03T09:16:31.135Z,19.74777
2023-07-03T09:17:31.152Z,19.74777
2023-07-03T09:18:31.341Z,19.74777
2023-07-03T09:20:31.571Z,19.74777
2023-07-03T09:22:31.866Z,19.74777
2023-07-03T09:24:32.608Z,19.74777
2023-07-03T09:26:32.295Z,19.73499
2023-07-03T09:27:32.811Z,19.73499
2023-07-03T09:28:32.716Z,19.73499
2023-07-03T09:29:32.870Z,19.73499
2023-07-03T09:31:34.288Z,19.73499
2023-07-03T09:33:33.446Z,19.73499
2023-07-03T09:34:33.424Z,19.73499
2023-07-03T09:35:35.675Z,19.73055
2023-07-03T09:36:33.747Z,19.73055
2023-07-03T09:37:33.983Z,19.73055
2023-07-03T09:38:34.037Z,19.73055
2023-07-03T09:39:34.291Z,19.73055
2023-07-03T09:40:34.323Z,19.73055
2023-07-03T09:41:34.496Z,19.73055
2023-07-03T09:42:34.509Z,19.73055
2023-07-03T09:43:34.954Z,19.73055
2023-07-03T09:44:35.133Z,19.73055
2023-07-03T09:46:35.519Z,19.71666
2023-07-03T09:47:35.890Z,19.71666
2023-07-03T09:49:35.878Z,19.71666
2023-07-03T09:50:35.875Z,19.71666
2023-07-03T09:51:36.209Z,19.71666
2023-07-03T09:53:36.456Z,19.71666
2023-07-03T09:55:37.561Z,19.71722
2023-07-03T09:56:36.865Z,19.71722
2023-07-03T09:57:37.303Z,19.71722
2023-07-03T09:58:37.401Z,19.71722
2023-07-03T09:59:37.629Z,19.71722
2023-07-03T10:08:39.256Z,19.74555
2023-07-03T10:12:39.704Z,19.74555
2023-07-03T10:13:41.751Z,19.74555
2023-07-03T10:14:39.994Z,19.74555
2023-07-03T10:16:40.438Z,19.7111
2023-07-03T10:18:40.024Z,19.7111
2023-07-03T10:19:40.528Z,19.7111
2023-07-03T10:20:40.622Z,19.7111
2023-07-03T10:21:40.630Z,19.7111
2023-07-03T10:22:41.544Z,19.7111
2023-07-03T10:24:40.924Z,19.7111
2023-07-03T10:25:41.319Z,19.74944
2023-07-03T10:26:41.305Z,19.74944
2023-07-03T10:27:41.683Z,19.74944
2023-07-03T10:28:41.574Z,19.74944
2023-07-03T10:29:42.284Z,19.74944
2023-07-03T10:31:44.603Z,19.74944
2023-07-03T10:32:42.385Z,19.74944
2023-07-03T10:33:42.687Z,19.74944
2023-07-03T10:34:42.602Z,19.74944
2023-07-03T10:35:43.093Z,19.775
2023-07-03T10:37:43.252Z,19.775
2023-07-03T10:39:43.562Z,19.775
2023-07-03T10:40:43.468Z,19.775
2023-07-03T10:41:43.841Z,19.775
2023-07-03T10:43:43.899Z,19.775
2023-07-03T10:44:44.171Z,19.775
2023-07-03T10:46:44.631Z,19.75944
2023-07-03T10:47:44.498Z,19.75944
2023-07-03T10:48:44.826Z,19.75944
2023-07-03T10:49:44.762Z,19.75944
2023-07-03T10:50:45.148Z,19.75944
2023-07-03T10:52:45.707Z,19.75944
2023-07-03T10:54:45.738Z,19.75944
2023-07-03T10:55:45.702Z,19.765
2023-07-03T10:56:45.700Z,19.765
2023-07-03T10:57:46.121Z,19.765
2023-07-03T10:58:46.074Z,19.765
2023-07-03T10:59:46.613Z,19.765
2023-07-03T11:01:46.731Z,19.765
2023-07-03T11:02:47.032Z,19.765
2023-07-03T11:03:49.831Z,19.765
2023-07-03T11:04:47.157Z,19.765
2023-07-03T11:05:47.487Z,19.775
2023-07-03T11:07:47.671Z,19.775
2023-07-03T11:08:47.630Z,19.775
2023-07-03T11:09:48.050Z,19.775
2023-07-03T11:11:48.265Z,19.775
2023-07-03T11:12:48.229Z,19.775
2023-07-03T11:13:48.566Z,19.775
2023-07-03T11:14:48.688Z,19.775
2023-07-03T11:16:49.092Z,19.77888
2023-07-03T11:22:51.096Z,19.77888
2023-07-03T11:24:50.516Z,19.77888
2023-07-03T11:27:52.052Z,19.79222
2023-07-03T11:30:51.458Z,19.79222
2023-07-03T11:31:51.135Z,19.79222
2023-07-03T11:32:51.467Z,19.79222
2023-07-03T11:39:53.282Z,19.82111
2023-07-03T11:46:53.530Z,19.85166
2023-07-03T11:47:53.836Z,19.85166
2023-07-03T11:48:53.936Z,19.85166
2023-07-03T11:49:53.983Z,19.85166
2023-07-03T11:50:54.247Z,19.85166
2023-07-03T11:51:54.583Z,19.85166
2023-07-03T11:52:54.222Z,19.85166
2023-07-03T11:53:54.767Z,19.85166
2023-07-03T11:55:55.286Z,19.83555
2023-07-03T11:58:04.327Z,19.83555
2023-07-03T11:58:56.873Z,19.83555
2023-07-03T11:59:55.501Z,19.83555
2023-07-03T12:01:56.117Z,19.83555
2023-07-03T12:03:56.275Z,19.83555
2023-07-03T12:04:56.447Z,19.83555
2023-07-03T12:05:56.584Z,19.83833
2023-07-03T12:06:56.548Z,19.83833
2023-07-03T12:07:56.876Z,19.83833
2023-07-03T12:08:56.926Z,19.83833
2023-07-03T12:09:57.066Z,19.83833
2023-07-03T12:11:57.379Z,19.83833
2023-07-03T12:12:57.642Z,19.83833
2023-07-03T12:13:57.898Z,19.83833
2023-07-03T12:14:58.208Z,19.83833
2023-07-03T12:16:58.067Z,19.815
2023-07-03T12:17:58.169Z,19.815
2023-07-03T12:18:58.478Z,19.815
2023-07-03T12:20:58.846Z,19.815
2023-07-03T12:22:59.123Z,19.815
2023-07-03T12:23:59.417Z,19.815
2023-07-03T12:24:59.536Z,19.815
2023-07-03T12:26:59.410Z,19.81
2023-07-03T12:27:59.968Z,19.81
2023-07-03T12:28:59.905Z,19.81
2023-07-03T12:30:00.165Z,19.81
2023-07-03T12:31:00.205Z,19.81
2023-07-03T12:32:00.439Z,19.81
2023-07-03T12:33:00.461Z,19.81
2023-07-03T12:34:00.791Z,19.81
2023-07-03T12:35:00.742Z,19.81
2023-07-03T12:36:01.104Z,19.77389
2023-07-03T12:37:02.196Z,19.77389
2023-07-03T12:38:01.636Z,19.77389
2023-07-03T12:40:01.573Z,19.77389
2023-07-03T12:41:01.741Z,19.77389
2023-07-03T12:42:01.921Z,19.77389
2023-07-03T12:43:01.845Z,19.77389
2023-07-03T12:44:08.506Z,19.77389
2023-07-03T12:45:02.376Z,19.77389
2023-07-03T12:46:01.902Z,19.75666
2023-07-03T12:47:02.665Z,19.75666
2023-07-03T12:48:02.596Z,19.75666
2023-07-03T12:49:02.903Z,19.75666
2023-07-03T12:50:02.847Z,19.75666
2023-07-03T12:51:03.214Z,19.75666
2023-07-03T12:52:03.316Z,19.75666
2023-07-03T12:53:03.641Z,19.75666
2023-07-03T12:54:03.607Z,19.75666
2023-07-03T12:56:04.486Z,19.76444
2023-07-03T12:57:04.623Z,19.76444
2023-07-03T12:58:04.160Z,19.76444
2023-07-03T12:59:04.867Z,19.76444
2023-07-03T13:00:04.625Z,19.76444
2023-07-03T13:01:04.745Z,19.76444
2023-07-03T13:03:04.993Z,19.76444
2023-07-03T13:04:05.167Z,19.76444
2023-07-03T13:05:05.319Z,19.76444
2023-07-03T13:07:05.626Z,19.77333
2023-07-03T13:08:05.540Z,19.77333
2023-07-03T13:09:05.952Z,19.77333
2023-07-03T13:11:06.306Z,19.77333
2023-07-03T13:12:06.256Z,19.77333
2023-07-03T13:13:06.586Z,19.77333
2023-07-03T13:14:06.533Z,19.77333
2023-07-03T13:15:07.096Z,19.77333
2023-07-03T13:17:07.126Z,19.76944
2023-07-03T13:18:07.123Z,19.76944
2023-07-03T13:19:07.459Z,19.76944
2023-07-03T13:20:07.413Z,19.76944
2023-07-03T13:21:07.699Z,19.76944
2023-07-03T13:22:07.658Z,19.76944
2023-07-03T13:23:08.625Z,19.76944
2023-07-03T13:25:08.414Z,19.76944
2023-07-03T13:27:08.669Z,19.75166
2023-07-03T13:28:08.684Z,19.75166
2023-07-03T13:29:09.270Z,19.75166
2023-07-03T13:30:09.673Z,19.75166
2023-07-03T13:32:10.172Z,19.75166
2023-07-03T13:34:09.616Z,19.75166
2023-07-03T13:36:09.684Z,19.73222
2023-07-03T13:37:10.203Z,19.73222
2023-07-03T13:38:10.823Z,19.73222
2023-07-03T13:40:10.721Z,19.73222
2023-07-03T13:42:10.443Z,19.73222
2023-07-03T13:43:10.590Z,19.73222
2023-07-03T13:44:11.197Z,19.73222
2023-07-03T13:45:11.271Z,19.73222
2023-07-03T13:46:11.056Z,19.73388
2023-07-03T13:47:11.212Z,19.73388
2023-07-03T13:48:11.379Z,19.73388
2023-07-03T13:49:11.490Z,19.73388
2023-07-03T13:50:12.261Z,19.73388
2023-07-03T13:51:12.127Z,19.73388
2023-07-03T13:52:12.472Z,19.73388
2023-07-03T13:53:12.565Z,19.73388
2023-07-03T13:54:13.172Z,19.73388
2023-07-03T13:56:13.475Z,19.72444
2023-07-03T13:58:13.478Z,19.72444
2023-07-03T13:59:13.749Z,19.72444
2023-07-03T14:00:14.152Z,19.72444
2023-07-03T14:02:14.387Z,19.72444
2023-07-03T14:04:14.486Z,19.72444
2023-07-03T14:05:14.507Z,19.72444
2023-07-03T14:06:14.599Z,19.71888
2023-07-03T14:07:14.562Z,19.71888
2023-07-03T14:08:14.844Z,19.71888
2023-07-03T14:09:14.969Z,19.71888
2023-07-03T14:10:15.168Z,19.71888
2023-07-03T14:11:15.199Z,19.71888
2023-07-03T14:12:15.593Z,19.71888
2023-07-03T14:14:15.947Z,19.71888
2023-07-03T14:15:16.083Z,19.71888
2023-07-03T14:17:16.336Z,19.70055
2023-07-03T14:18:16.303Z,19.70055
2023-07-03T14:19:16.599Z,19.70055
2023-07-03T14:20:16.610Z,19.70055
2023-07-03T14:21:16.867Z,19.70055
2023-07-03T14:22:16.829Z,19.70055
2023-07-03T14:23:17.048Z,19.70055
2023-07-03T14:24:17.066Z,19.70055
2023-07-03T14:25:17.464Z,19.70055
2023-07-03T14:27:17.730Z,19.68666
2023-07-03T14:29:17.941Z,19.68666
2023-07-03T14:30:18.201Z,19.68666
2023-07-03T14:32:18.548Z,19.68666
2023-07-03T14:34:18.195Z,19.68666
2023-07-03T14:35:18.942Z,19.68666
2023-07-03T14:36:18.973Z,19.67778
2023-07-03T14:37:19.201Z,19.67778
2023-07-03T14:38:19.159Z,19.67778
2023-07-03T14:39:19.509Z,19.67778
2023-07-03T14:41:19.757Z,19.67778
2023-07-03T14:43:20.228Z,19.67778
2023-07-03T14:45:19.877Z,19.67778
2023-07-03T14:47:20.963Z,19.66778
2023-07-03T14:49:21.722Z,19.66778
2023-07-03T14:51:21.371Z,19.66778
2023-07-03T14:53:21.588Z,19.66778
2023-07-03T14:54:21.929Z,19.66778
2023-07-03T14:55:23.115Z,19.66778
2023-07-03T14:57:22.143Z,19.65444
2023-07-03T14:58:22.405Z,19.65444
2023-07-03T14:59:22.569Z,19.65444
2023-07-03T15:01:22.897Z,19.65444
2023-07-03T15:02:22.955Z,19.65444
2023-07-03T15:03:23.454Z,19.65444
2023-07-03T15:05:23.572Z,19.65444
2023-07-03T15:07:23.915Z,19.65222
2023-07-03T15:09:24.004Z,19.65222
2023-07-03T15:10:24.169Z,19.65222
2023-07-03T15:11:24.288Z,19.65222
2023-07-03T15:12:24.238Z,19.65222
2023-07-03T15:13:24.552Z,19.65222
2023-07-03T15:14:24.835Z,19.65222
2023-07-03T15:16:25.025Z,19.655
2023-07-03T15:17:24.974Z,19.655
2023-07-03T15:18:25.388Z,19.655
2023-07-03T15:20:25.681Z,19.655
2023-07-03T15:22:26.034Z,19.655
2023-07-03T15:24:26.232Z,19.655
2023-07-03T15:25:26.211Z,19.64056
2023-07-03T15:26:26.441Z,19.64056
2023-07-03T15:28:26.706Z,19.64056
2023-07-03T15:29:26.868Z,19.64056
2023-07-03T15:30:26.882Z,19.64056
2023-07-03T15:31:27.224Z,19.64056
2023-07-03T15:32:27.167Z,19.64056
2023-07-03T15:33:27.513Z,19.64056
2023-07-03T15:35:27.806Z,19.61889
2023-07-03T15:36:27.853Z,19.61889
2023-07-03T15:37:28.195Z,19.61889
2023-07-03T15:39:28.674Z,19.61889
2023-07-03T15:41:28.640Z,19.61889
2023-07-03T15:42:28.794Z,19.61889
2023-07-03T15:43:28.976Z,19.61889
2023-07-03T15:44:29.142Z,19.61889
2023-07-03T15:46:29.404Z,19.61389
2023-07-03T15:47:29.408Z,19.61389
2023-07-03T15:48:29.179Z,19.61389
2023-07-03T15:49:32.144Z,19.61389
2023-07-03T15:51:30.890Z,19.61389